CheckWX is a tool to help pilots better visualize weather data.  It is not intended as a substitute for an official pre-flight weather briefing.

15:41:48 UTC

URRP METAR
Platov International Airport
Rostov Oblast, Russian Federation
Current

12 mins ago

URRP 091530Z 01005MPS 330V040 9999 FEW/// 26/13 Q1013 R05/CLRD70 NOSIG RMK QFE755/1007
Observed
Jul-9 @ 15:30 UTC
Wind
  • 010° at 10 KTS
Visibility
10,000+ meters
Cloud Levels
Temperature
26°C / 79°F
Dewpoint
13°C / 55°F
Humidity
45%
Altimeter
29.91" Hg
Pressure
1012.92 hPa
Previous

42 mins ago

URRP 091500Z 35005MPS 320V020 CAVOK 25/13 Q1013 R05/CLRD70 NOSIG RMK QFE755/1007
Observed
Jul-9 @ 15:00 UTC
Wind
  • 350° at 10 KTS
Visibility
10,000+ meters
Flight Rules
VFR
Cloud Levels
  • Clear skies
Temperature
25°C / 77°F
Dewpoint
13°C / 55°F
Humidity
47%
Altimeter
29.91" Hg
Pressure
1012.92 hPa
Previous

1 hour ago

URRP 091430Z 35005MPS 320V020 CAVOK 26/14 Q1013 R05/CLRD70 TEMPO 32007G12MPS RMK QFE755/1007
Observed
Jul-9 @ 14:30 UTC
Wind
  • 350° at 10 KTS
Visibility
10,000+ meters
Flight Rules
VFR
Cloud Levels
  • Clear skies
Temperature
26°C / 79°F
Dewpoint
14°C / 57°F
Humidity
48%
Altimeter
29.91" Hg
Pressure
1012.92 hPa